sensor_id;sensor_type;location;lat;lon;timestamp;pressure;altitude;pressure_sealevel;temperature;humidity
20027;BME280;10174;42.688;23.344;2023-08-17T00:01:33;95326.25;;;21.50;83.89
20027;BME280;10174;42.688;23.344;2023-08-17T00:03:59;95385.13;;;21.89;83.54
20027;BME280;10174;42.688;23.344;2023-08-17T00:06:24;95293.81;;;21.18;83.56
20027;BME280;10174;42.688;23.344;2023-08-17T00:08:51;95371.59;;;21.72;83.81
20027;BME280;10174;42.688;23.344;2023-08-17T00:11:16;95312.03;;;21.35;84.00
20027;BME280;10174;42.688;23.344;2023-08-17T00:13:42;95378.91;;;21.80;83.91
20027;BME280;10174;42.688;23.344;2023-08-17T00:16:07;95373.53;;;21.72;84.01
20027;BME280;10174;42.688;23.344;2023-08-17T00:18:32;95382.19;;;21.74;82.78
20027;BME280;10174;42.688;23.344;2023-08-17T00:20:58;95372.03;;;21.53;83.63
20027;BME280;10174;42.688;23.344;2023-08-17T00:23:23;95384.97;;;21.65;83.81
20027;BME280;10174;42.688;23.344;2023-08-17T00:25:49;95368.19;;;21.54;84.23
20027;BME280;10174;42.688;23.344;2023-08-17T00:28:14;95383.13;;;21.57;84.64
20027;BME280;10174;42.688;23.344;2023-08-17T00:30:39;95384.56;;;21.54;84.89
20027;BME280;10174;42.688;23.344;2023-08-17T00:33:05;95351.47;;;21.26;84.90
20027;BME280;10174;42.688;23.344;2023-08-17T00:35:31;95215.03;;;20.49;84.66
20027;BME280;10174;42.688;23.344;2023-08-17T00:37:57;95389.53;;;21.61;84.38
20027;BME280;10174;42.688;23.344;2023-08-17T00:40:23;95387.78;;;21.56;84.54
20027;BME280;10174;42.688;23.344;2023-08-17T00:42:48;95394.34;;;21.64;84.43
20027;BME280;10174;42.688;23.344;2023-08-17T00:45:15;95308.38;;;21.02;83.84
20027;BME280;10174;42.688;23.344;2023-08-17T00:47:41;95377.06;;;21.42;83.98
20027;BME280;10174;42.688;23.344;2023-08-17T00:50:07;95384.59;;;21.45;83.34
20027;BME280;10174;42.688;23.344;2023-08-17T00:52:33;95357.00;;;21.38;82.38
20027;BME280;10174;42.688;23.344;2023-08-17T00:55:00;95253.94;;;20.75;81.67
20027;BME280;10174;42.688;23.344;2023-08-17T00:57:26;95338.25;;;21.28;81.91
20027;BME280;10174;42.688;23.344;2023-08-17T00:59:52;95387.31;;;21.54;81.69
20027;BME280;10174;42.688;23.344;2023-08-17T01:02:18;95377.72;;;21.39;80.94
20027;BME280;10174;42.688;23.344;2023-08-17T01:04:44;95345.34;;;21.29;80.13
20027;BME280;10174;42.688;23.344;2023-08-17T01:07:10;95351.72;;;21.33;80.79
20027;BME280;10174;42.688;23.344;2023-08-17T01:09:36;95381.50;;;21.56;80.29
20027;BME280;10174;42.688;23.344;2023-08-17T01:12:31;95392.78;;;21.54;80.05
20027;BME280;10174;42.688;23.344;2023-08-17T01:20:00;95371.03;;;21.28;79.76
20027;BME280;10174;42.688;23.344;2023-08-17T01:22:27;95324.59;;;20.98;79.92
20027;BME280;10174;42.688;23.344;2023-08-17T01:24:55;95290.88;;;20.73;79.60
20027;BME280;10174;42.688;23.344;2023-08-17T01:27:24;95367.56;;;21.18;79.29
20027;BME280;10174;42.688;23.344;2023-08-17T01:29:50;95386.78;;;21.31;78.95
20027;BME280;10174;42.688;23.344;2023-08-17T01:32:26;95394.50;;;21.29;79.08
20027;BME280;10174;42.688;23.344;2023-08-17T01:35:00;95365.94;;;21.17;79.06
20027;BME280;10174;42.688;23.344;2023-08-17T01:37:31;95388.22;;;21.28;77.59
20027;BME280;10174;42.688;23.344;2023-08-17T01:39:59;95359.56;;;21.13;78.71
20027;BME280;10174;42.688;23.344;2023-08-17T01:42:25;95390.38;;;21.23;78.79
20027;BME280;10174;42.688;23.344;2023-08-17T01:44:51;95381.03;;;21.24;79.14
20027;BME280;10174;42.688;23.344;2023-08-17T01:47:21;95179.03;;;19.87;78.67
20027;BME280;10174;42.688;23.344;2023-08-17T01:49:46;95368.88;;;21.12;78.46
20027;BME280;10174;42.688;23.344;2023-08-17T01:52:12;95374.81;;;21.14;78.08
20027;BME280;10174;42.688;23.344;2023-08-17T01:54:37;95361.19;;;21.06;78.36
20027;BME280;10174;42.688;23.344;2023-08-17T01:57:02;95363.63;;;21.07;78.21
20027;BME280;10174;42.688;23.344;2023-08-17T01:59:28;95363.78;;;21.02;78.23
20027;BME280;10174;42.688;23.344;2023-08-17T02:01:53;95319.59;;;20.70;78.57
20027;BME280;10174;42.688;23.344;2023-08-17T02:04:18;95358.97;;;20.99;78.34
20027;BME280;10174;42.688;23.344;2023-08-17T02:06:44;95365.09;;;20.96;78.46
20027;BME280;10174;42.688;23.344;2023-08-17T02:09:09;95382.44;;;21.00;78.74
20027;BME280;10174;42.688;23.344;2023-08-17T02:11:35;95365.19;;;20.78;77.98
20027;BME280;10174;42.688;23.344;2023-08-17T02:14:00;95351.56;;;20.70;78.48
20027;BME280;10174;42.688;23.344;2023-08-17T02:16:25;95385.38;;;20.86;78.48
20027;BME280;10174;42.688;23.344;2023-08-17T02:18:51;95367.59;;;20.71;79.01
20027;BME280;10174;42.688;23.344;2023-08-17T02:21:16;95261.72;;;20.08;79.18
20027;BME280;10174;42.688;23.344;2023-08-17T02:23:41;95389.56;;;20.84;78.12
20027;BME280;10174;42.688;23.344;2023-08-17T02:26:07;95328.66;;;20.44;78.99
20027;BME280;10174;42.688;23.344;2023-08-17T02:28:32;95347.41;;;20.46;79.32
20027;BME280;10174;42.688;23.344;2023-08-17T02:30:58;95280.66;;;19.96;79.36
20027;BME280;10174;42.688;23.344;2023-08-17T02:33:24;95271.06;;;19.90;79.44
20027;BME280;10174;42.688;23.344;2023-08-17T02:35:50;95397.50;;;20.50;80.10
20027;BME280;10174;42.688;23.344;2023-08-17T02:38:15;95303.41;;;20.00;80.53
20027;BME280;10174;42.688;23.344;2023-08-17T02:40:40;95330.34;;;20.19;79.97
20027;BME280;10174;42.688;23.344;2023-08-17T02:43:06;95338.66;;;20.23;79.49
20027;BME280;10174;42.688;23.344;2023-08-17T02:45:33;95330.19;;;20.16;79.37
20027;BME280;10174;42.688;23.344;2023-08-17T02:47:59;95327.28;;;20.03;79.37
20027;BME280;10174;42.688;23.344;2023-08-17T02:50:24;95328.25;;;20.07;78.63
20027;BME280;10174;42.688;23.344;2023-08-17T02:52:50;95340.28;;;20.06;78.41
20027;BME280;10174;42.688;23.344;2023-08-17T02:55:15;95375.88;;;20.27;78.57
20027;BME280;10174;42.688;23.344;2023-08-17T02:57:40;95340.31;;;19.98;78.81
20027;BME280;10174;42.688;23.344;2023-08-17T03:00:06;95308.09;;;19.82;78.71
20027;BME280;10174;42.688;23.344;2023-08-17T03:02:32;95357.13;;;20.08;78.55
20027;BME280;10174;42.688;23.344;2023-08-17T03:04:57;95327.34;;;19.86;78.92
20027;BME280;10174;42.688;23.344;2023-08-17T03:07:23;95362.09;;;20.06;78.73
20027;BME280;10174;42.688;23.344;2023-08-17T03:09:48;95349.59;;;19.97;78.65
20027;BME280;10174;42.688;23.344;2023-08-17T03:12:13;95369.00;;;20.04;78.66
20027;BME280;10174;42.688;23.344;2023-08-17T03:14:39;95358.09;;;19.95;78.53
20027;BME280;10174;42.688;23.344;2023-08-17T03:17:04;95365.16;;;19.96;78.48
20027;BME280;10174;42.688;23.344;2023-08-17T03:19:29;95359.41;;;19.98;78.27
20027;BME280;10174;42.688;23.344;2023-08-17T03:21:55;95328.16;;;19.78;78.30
20027;BME280;10174;42.688;23.344;2023-08-17T03:24:20;95351.84;;;19.86;78.23
20027;BME280;10174;42.688;23.344;2023-08-17T03:26:46;95315.59;;;19.59;78.88
20027;BME280;10174;42.688;23.344;2023-08-17T03:29:11;95268.47;;;19.23;78.88
20027;BME280;10174;42.688;23.344;2023-08-17T03:31:37;95347.19;;;19.69;79.01
20027;BME280;10174;42.688;23.344;2023-08-17T03:34:02;95371.41;;;19.88;79.11
20027;BME280;10174;42.688;23.344;2023-08-17T03:36:28;95351.84;;;19.68;79.16
20027;BME280;10174;42.688;23.344;2023-08-17T03:38:53;95337.38;;;19.59;79.21
20027;BME280;10174;42.688;23.344;2023-08-17T03:41:18;95327.47;;;19.46;78.80
20027;BME280;10174;42.688;23.344;2023-08-17T03:43:44;95281.47;;;19.18;78.56
20027;BME280;10174;42.688;23.344;2023-08-17T03:46:09;95343.47;;;19.56;78.82
20027;BME280;10174;42.688;23.344;2023-08-17T03:48:35;95373.00;;;19.71;79.24
20027;BME280;10174;42.688;23.344;2023-08-17T03:51:00;95354.38;;;19.56;78.73
20027;BME280;10174;42.688;23.344;2023-08-17T03:53:27;95368.84;;;19.65;79.16
20027;BME280;10174;42.688;23.344;2023-08-17T03:55:52;95364.63;;;19.59;78.80
20027;BME280;10174;42.688;23.344;2023-08-17T03:58:18;95359.81;;;19.56;79.02
20027;BME280;10174;42.688;23.344;2023-08-17T04:00:52;95387.09;;;19.65;79.20
20027;BME280;10174;42.688;23.344;2023-08-17T04:03:21;95380.34;;;19.62;79.04
20027;BME280;10174;42.688;23.344;2023-08-17T04:05:46;95291.84;;;18.98;79.29
20027;BME280;10174;42.688;23.344;2023-08-17T04:08:12;95353.09;;;19.45;79.46
20027;BME280;10174;42.688;23.344;2023-08-17T04:10:37;95377.16;;;19.60;78.72
20027;BME280;10174;42.688;23.344;2023-08-17T04:13:03;95373.28;;;19.52;78.77
20027;BME280;10174;42.688;23.344;2023-08-17T04:15:30;95383.06;;;19.62;79.45
20027;BME280;10174;42.688;23.344;2023-08-17T04:17:55;95363.69;;;19.55;79.37
20027;BME280;10174;42.688;23.344;2023-08-17T04:20:20;95358.88;;;19.52;80.01
20027;BME280;10174;42.688;23.344;2023-08-17T04:22:47;95367.69;;;19.57;79.67
20027;BME280;10174;42.688;23.344;2023-08-17T04:25:13;95375.53;;;19.68;79.27
20027;BME280;10174;42.688;23.344;2023-08-17T04:27:39;95379.88;;;19.69;79.40
20027;BME280;10174;42.688;23.344;2023-08-17T04:30:05;95363.69;;;19.64;79.26
20027;BME280;10174;42.688;23.344;2023-08-17T04:32:30;95390.81;;;19.86;79.17
20027;BME280;10174;42.688;23.344;2023-08-17T04:34:56;95274.53;;;19.12;79.43
20027;BME280;10174;42.688;23.344;2023-08-17T04:37:21;95390.81;;;19.95;79.65
20027;BME280;10174;42.688;23.344;2023-08-17T04:39:47;95293.16;;;19.27;79.33
20027;BME280;10174;42.688;23.344;2023-08-17T04:42:13;95357.13;;;19.65;79.38
20027;BME280;10174;42.688;23.344;2023-08-17T04:44:39;95388.09;;;19.95;79.74
20027;BME280;10174;42.688;23.344;2023-08-17T04:47:04;95376.38;;;19.86;79.49
20027;BME280;10174;42.688;23.344;2023-08-17T04:49:30;95396.91;;;20.01;79.37
20027;BME280;10174;42.688;23.344;2023-08-17T04:51:56;95389.84;;;20.00;79.10
20027;BME280;10174;42.688;23.344;2023-08-17T04:54:21;95393.22;;;20.05;78.91
20027;BME280;10174;42.688;23.344;2023-08-17T04:56:47;95348.47;;;19.80;78.68
20027;BME280;10174;42.688;23.344;2023-08-17T04:59:12;95390.50;;;20.14;79.47
20027;BME280;10174;42.688;23.344;2023-08-17T05:01:38;95389.84;;;20.17;78.81
20027;BME280;10174;42.688;23.344;2023-08-17T05:04:04;95381.03;;;20.11;77.71
20027;BME280;10174;42.688;23.344;2023-08-17T05:06:30;95359.53;;;20.01;77.68
20027;BME280;10174;42.688;23.344;2023-08-17T05:08:56;95389.38;;;20.24;76.88
20027;BME280;10174;42.688;23.344;2023-08-17T05:11:22;95394.97;;;20.27;75.51
20027;BME280;10174;42.688;23.344;2023-08-17T05:13:47;95313.06;;;19.89;75.52
20027;BME280;10174;42.688;23.344;2023-08-17T05:16:12;95392.38;;;20.40;76.06
20027;BME280;10174;42.688;23.344;2023-08-17T05:18:38;95344.94;;;20.15;76.03
20027;BME280;10174;42.688;23.344;2023-08-17T05:21:03;95377.63;;;20.41;75.70
20027;BME280;10174;42.688;23.344;2023-08-17T05:23:29;95367.50;;;20.41;75.38
20027;BME280;10174;42.688;23.344;2023-08-17T05:25:54;95394.09;;;20.62;75.26
20027;BME280;10174;42.688;23.344;2023-08-17T05:28:20;95376.75;;;20.58;74.75
20027;BME280;10174;42.688;23.344;2023-08-17T05:30:46;95287.69;;;20.06;74.96
20027;BME280;10174;42.688;23.344;2023-08-17T05:33:11;95355.59;;;20.55;74.02
20027;BME280;10174;42.688;23.344;2023-08-17T05:35:36;95379.81;;;20.74;73.86
20027;BME280;10174;42.688;23.344;2023-08-17T05:38:02;95412.50;;;20.91;74.21
20027;BME280;10174;42.688;23.344;2023-08-17T05:40:29;95397.06;;;20.95;73.88
20027;BME280;10174;42.688;23.344;2023-08-17T05:42:55;95393.66;;;21.07;74.50
20027;BME280;10174;42.688;23.344;2023-08-17T05:45:21;95398.59;;;21.14;73.74
20027;BME280;10174;42.688;23.344;2023-08-17T05:47:46;95395.66;;;21.19;72.79
20027;BME280;10174;42.688;23.344;2023-08-17T05:50:11;95392.91;;;21.28;72.37
20027;BME280;10174;42.688;23.344;2023-08-17T05:52:37;95365.94;;;21.17;71.31
20027;BME280;10174;42.688;23.344;2023-08-17T05:55:02;95398.09;;;21.50;71.25
20027;BME280;10174;42.688;23.344;2023-08-17T05:57:28;95370.94;;;21.45;69.32
20027;BME280;10174;42.688;23.344;2023-08-17T05:59:53;95376.31;;;21.63;69.72
20027;BME280;10174;42.688;23.344;2023-08-17T06:02:19;95368.41;;;21.70;69.10
20027;BME280;10174;42.688;23.344;2023-08-17T06:04:44;95379.66;;;21.89;69.89
20027;BME280;10174;42.688;23.344;2023-08-17T06:07:09;95364.06;;;21.90;70.44
20027;BME280;10174;42.688;23.344;2023-08-17T06:09:35;95380.78;;;22.10;72.23
20027;BME280;10174;42.688;23.344;2023-08-17T06:12:00;95389.47;;;22.33;72.28
20027;BME280;10174;42.688;23.344;2023-08-17T06:14:25;95376.16;;;22.44;73.71
20027;BME280;10174;42.688;23.344;2023-08-17T06:16:51;95317.31;;;22.16;74.59
20027;BME280;10174;42.688;23.344;2023-08-17T06:19:16;95340.09;;;22.41;74.97
20027;BME280;10174;42.688;23.344;2023-08-17T06:21:42;95361.25;;;22.66;75.09
20027;BME280;10174;42.688;23.344;2023-08-17T06:24:07;95376.00;;;22.86;74.39
20027;BME280;10174;42.688;23.344;2023-08-17T06:26:32;95368.47;;;22.95;74.17
20027;BME280;10174;42.688;23.344;2023-08-17T06:28:58;95368.59;;;22.99;73.37
20027;BME280;10174;42.688;23.344;2023-08-17T06:31:23;95276.13;;;22.46;71.49
20027;BME280;10174;42.688;23.344;2023-08-17T06:33:55;95361.56;;;23.10;67.69
20027;BME280;10174;42.688;23.344;2023-08-17T06:36:20;95393.19;;;23.32;67.51
20027;BME280;10174;42.688;23.344;2023-08-17T06:38:46;95321.72;;;23.00;67.95
20027;BME280;10174;42.688;23.344;2023-08-17T06:41:11;95358.13;;;23.38;67.45
20027;BME280;10174;42.688;23.344;2023-08-17T06:43:36;95310.44;;;23.14;67.02
20027;BME280;10174;42.688;23.344;2023-08-17T06:46:02;95385.25;;;23.80;66.52
20027;BME280;10174;42.688;23.344;2023-08-17T06:48:28;95323.19;;;23.47;66.14
20027;BME280;10174;42.688;23.344;2023-08-17T06:50:53;95318.56;;;23.63;66.38
20027;BME280;10174;42.688;23.344;2023-08-17T06:53:19;95365.94;;;24.17;63.19
20027;BME280;10174;42.688;23.344;2023-08-17T06:55:44;95354.53;;;24.15;63.74
20027;BME280;10174;42.688;23.344;2023-08-17T06:58:09;95398.03;;;24.57;64.48
20027;BME280;10174;42.688;23.344;2023-08-17T07:00:35;95358.25;;;24.51;62.71
20027;BME280;10174;42.688;23.344;2023-08-17T07:03:01;95366.38;;;24.76;61.93
20027;BME280;10174;42.688;23.344;2023-08-17T07:05:26;95384.91;;;25.11;61.07
20027;BME280;10174;42.688;23.344;2023-08-17T07:07:51;95401.56;;;25.18;61.66
20027;BME280;10174;42.688;23.344;2023-08-17T07:10:19;95371.88;;;25.07;61.67
20027;BME280;10174;42.688;23.344;2023-08-17T07:12:45;95372.50;;;25.17;60.87
20027;BME280;10174;42.688;23.344;2023-08-17T07:15:10;95339.78;;;25.28;57.26
20027;BME280;10174;42.688;23.344;2023-08-17T07:17:36;95360.72;;;26.03;54.71
20027;BME280;10174;42.688;23.344;2023-08-17T07:20:03;95363.81;;;27.30;52.75
20027;BME280;10174;42.688;23.344;2023-08-17T07:22:29;95385.06;;;27.52;50.83
20027;BME280;10174;42.688;23.344;2023-08-17T07:24:54;95329.50;;;27.27;50.45
20027;BME280;10174;42.688;23.344;2023-08-17T07:27:20;95371.69;;;27.54;50.52
20027;BME280;10174;42.688;23.344;2023-08-17T07:29:45;95387.91;;;27.33;51.30
20027;BME280;10174;42.688;23.344;2023-08-17T07:32:10;95362.34;;;27.13;49.90
20027;BME280;10174;42.688;23.344;2023-08-17T07:34:36;95357.47;;;26.79;52.44
20027;BME280;10174;42.688;23.344;2023-08-17T07:37:04;95365.00;;;26.82;50.52
20027;BME280;10174;42.688;23.344;2023-08-17T07:39:29;95368.34;;;26.72;50.94
20027;BME280;10174;42.688;23.344;2023-08-17T07:41:55;95369.34;;;26.83;51.35
20027;BME280;10174;42.688;23.344;2023-08-17T07:44:20;95346.75;;;26.74;49.35
20027;BME280;10174;42.688;23.344;2023-08-17T07:46:46;95382.16;;;27.18;48.86
20027;BME280;10174;42.688;23.344;2023-08-17T07:49:11;95390.50;;;27.26;48.80
20027;BME280;10174;42.688;23.344;2023-08-17T07:51:36;95363.47;;;27.08;49.64
20027;BME280;10174;42.688;23.344;2023-08-17T07:54:02;95355.94;;;27.05;49.71
20027;BME280;10174;42.688;23.344;2023-08-17T07:56:28;95334.84;;;27.16;48.85
20027;BME280;10174;42.688;23.344;2023-08-17T07:58:54;95367.31;;;27.80;47.68
20027;BME280;10174;42.688;23.344;2023-08-17T08:01:19;95262.75;;;27.14;46.46
20027;BME280;10174;42.688;23.344;2023-08-17T08:03:45;95369.13;;;27.96;46.49
20027;BME280;10174;42.688;23.344;2023-08-17T08:06:10;95330.50;;;27.96;45.50
20027;BME280;10174;42.688;23.344;2023-08-17T08:08:35;95366.84;;;28.35;46.02
20027;BME280;10174;42.688;23.344;2023-08-17T08:11:01;95340.56;;;28.45;44.69
20027;BME280;10174;42.688;23.344;2023-08-17T08:13:26;95345.56;;;28.70;43.95
20027;BME280;10174;42.688;23.344;2023-08-17T08:15:52;95321.16;;;28.79;43.96
20027;BME280;10174;42.688;23.344;2023-08-17T08:18:17;95357.75;;;29.10;44.43
20027;BME280;10174;42.688;23.344;2023-08-17T08:20:42;95341.84;;;28.96;43.61
20027;BME280;10174;42.688;23.344;2023-08-17T08:23:08;95338.00;;;29.08;42.61
20027;BME280;10174;42.688;23.344;2023-08-17T08:25:33;95330.56;;;29.16;42.66
20027;BME280;10174;42.688;23.344;2023-08-17T08:27:58;95343.03;;;29.40;42.30
20027;BME280;10174;42.688;23.344;2023-08-17T08:30:24;95353.66;;;29.93;41.50
20027;BME280;10174;42.688;23.344;2023-08-17T08:32:49;95279.56;;;29.72;40.70
20027;BME280;10174;42.688;23.344;2023-08-17T08:35:15;95348.47;;;31.37;38.84
20027;BME280;10174;42.688;23.344;2023-08-17T08:37:40;95322.94;;;33.41;35.10
20027;BME280;10174;42.688;23.344;2023-08-17T08:40:11;95359.69;;;34.43;33.70
20027;BME280;10174;42.688;23.344;2023-08-17T08:42:37;95346.56;;;34.40;33.87
20027;BME280;10174;42.688;23.344;2023-08-17T08:45:02;95334.56;;;35.01;32.83
20027;BME280;10174;42.688;23.344;2023-08-17T08:47:29;95339.09;;;35.19;32.49
20027;BME280;10174;42.688;23.344;2023-08-17T08:50:00;95275.66;;;34.95;32.35
20027;BME280;10174;42.688;23.344;2023-08-17T08:52:37;95327.28;;;36.02;31.65
20027;BME280;10174;42.688;23.344;2023-08-17T08:55:11;95312.47;;;36.62;29.83
20027;BME280;10174;42.688;23.344;2023-08-17T08:57:41;95284.81;;;37.95;28.46
20027;BME280;10174;42.688;23.344;2023-08-17T09:00:07;95254.72;;;38.25;26.74
20027;BME280;10174;42.688;23.344;2023-08-17T09:02:33;95259.34;;;38.32;26.70
20027;BME280;10174;42.688;23.344;2023-08-17T09:04:59;95327.81;;;40.20;24.85
20027;BME280;10174;42.688;23.344;2023-08-17T09:07:26;95312.47;;;39.77;25.74
20027;BME280;10174;42.688;23.344;2023-08-17T09:09:55;95299.03;;;40.16;25.46
20027;BME280;10174;42.688;23.344;2023-08-17T09:12:21;95311.44;;;41.13;24.13
20027;BME280;10174;42.688;23.344;2023-08-17T09:14:47;95236.97;;;40.64;24.28
20027;BME280;10174;42.688;23.344;2023-08-17T09:17:12;95290.88;;;41.72;23.22
20027;BME280;10174;42.688;23.344;2023-08-17T09:19:38;95302.56;;;40.30;24.37
20027;BME280;10174;42.688;23.344;2023-08-17T09:22:03;95286.66;;;40.58;23.98
20027;BME280;10174;42.688;23.344;2023-08-17T09:24:35;95304.06;;;41.93;22.85
20027;BME280;10174;42.688;23.344;2023-08-17T09:27:04;95262.69;;;41.99;22.63
20027;BME280;10174;42.688;23.344;2023-08-17T09:29:31;95244.16;;;41.06;23.02
20027;BME280;10174;42.688;23.344;2023-08-17T09:32:07;95304.22;;;41.12;23.48
20027;BME280;10174;42.688;23.344;2023-08-17T09:34:32;95278.28;;;40.76;23.59
20027;BME280;10174;42.688;23.344;2023-08-17T09:37:04;95285.72;;;41.70;22.70
20027;BME280;10174;42.688;23.344;2023-08-17T09:39:33;95283.75;;;41.11;23.37
20027;BME280;10174;42.688;23.344;2023-08-17T09:41:59;95220.53;;;40.31;23.60
20027;BME280;10174;42.688;23.344;2023-08-17T09:44:25;95279.81;;;41.09;23.27
20027;BME280;10174;42.688;23.344;2023-08-17T09:46:50;95276.59;;;40.79;23.19
20027;BME280;10174;42.688;23.344;2023-08-17T09:49:17;95269.78;;;41.08;23.48
20027;BME280;10174;42.688;23.344;2023-08-17T09:51:44;95229.88;;;40.50;23.68
20027;BME280;10174;42.688;23.344;2023-08-17T09:54:23;95171.88;;;39.11;24.75
20027;BME280;10174;42.688;23.344;2023-08-17T09:56:50;95187.59;;;39.08;24.39
20027;BME280;10174;42.688;23.344;2023-08-17T09:59:16;95268.03;;;40.07;23.51
20027;BME280;10174;42.688;23.344;2023-08-17T10:01:42;95247.97;;;41.49;21.76
20027;BME280;10174;42.688;23.344;2023-08-17T10:04:09;95239.16;;;41.10;22.08
20027;BME280;10174;42.688;23.344;2023-08-17T10:06:39;95241.88;;;41.97;21.18
20027;BME280;10174;42.688;23.344;2023-08-17T10:09:07;95199.38;;;40.99;21.87
20027;BME280;10174;42.688;23.344;2023-08-17T10:11:37;95251.03;;;41.14;22.08
20027;BME280;10174;42.688;23.344;2023-08-17T10:14:09;95238.88;;;42.10;21.55
20027;BME280;10174;42.688;23.344;2023-08-17T10:16:45;95246.00;;;42.48;20.10
20027;BME280;10174;42.688;23.344;2023-08-17T10:22:03;95244.91;;;41.06;21.90
20027;BME280;10174;42.688;23.344;2023-08-17T10:24:32;95195.09;;;41.44;20.76
20027;BME280;10174;42.688;23.344;2023-08-17T10:27:01;95159.38;;;41.50;20.82
20027;BME280;10174;42.688;23.344;2023-08-17T10:29:28;95223.81;;;42.74;20.29
20027;BME280;10174;42.688;23.344;2023-08-17T10:31:54;95231.41;;;41.70;21.25
20027;BME280;10174;42.688;23.344;2023-08-17T10:34:20;95236.72;;;42.05;21.00
20027;BME280;10174;42.688;23.344;2023-08-17T10:36:46;95237.97;;;41.94;20.70
20027;BME280;10174;42.688;23.344;2023-08-17T10:41:48;95228.81;;;42.79;20.35
20027;BME280;10174;42.688;23.344;2023-08-17T10:44:14;95167.44;;;42.56;20.08
20027;BME280;10174;42.688;23.344;2023-08-17T10:46:39;95229.06;;;42.57;19.75
20027;BME280;10174;42.688;23.344;2023-08-17T10:49:07;95185.81;;;41.71;20.12
20027;BME280;10174;42.688;23.344;2023-08-17T10:52:04;95224.84;;;40.86;21.36
20027;BME280;10174;42.688;23.344;2023-08-17T10:54:38;95223.69;;;40.74;22.26
20027;BME280;10174;42.688;23.344;2023-08-17T10:57:29;95217.31;;;41.51;21.76
20027;BME280;10174;42.688;23.344;2023-08-17T11:00:22;95214.75;;;42.09;21.40
20027;BME280;10174;42.688;23.344;2023-08-17T11:03:02;95221.06;;;41.39;22.22
20027;BME280;10174;42.688;23.344;2023-08-17T11:08:04;95215.06;;;41.09;20.97
20027;BME280;10174;42.688;23.344;2023-08-17T11:10:30;95186.72;;;41.03;21.52
20027;BME280;10174;42.688;23.344;2023-08-17T11:12:56;95212.06;;;40.53;22.20
20027;BME280;10174;42.688;23.344;2023-08-17T11:15:38;95196.38;;;40.12;23.44
20027;BME280;10174;42.688;23.344;2023-08-17T11:18:08;95183.78;;;41.07;22.40
20027;BME280;10174;42.688;23.344;2023-08-17T11:20:35;95205.56;;;41.62;21.84
20027;BME280;10174;42.688;23.344;2023-08-17T11:23:01;95204.44;;;42.58;20.57
20027;BME280;10174;42.688;23.344;2023-08-17T11:25:27;95137.78;;;41.10;22.25
20027;BME280;10174;42.688;23.344;2023-08-17T11:27:54;95181.56;;;41.02;22.18
20027;BME280;10174;42.688;23.344;2023-08-17T11:30:20;95172.13;;;40.86;22.60
20027;BME280;10174;42.688;23.344;2023-08-17T11:32:46;95201.22;;;43.08;20.62
20027;BME280;10174;42.688;23.344;2023-08-17T11:35:11;95185.06;;;44.01;19.96
20027;BME280;10174;42.688;23.344;2023-08-17T11:37:37;95187.06;;;41.05;22.28
20027;BME280;10174;42.688;23.344;2023-08-17T11:40:02;95154.75;;;39.75;23.60
20027;BME280;10174;42.688;23.344;2023-08-17T11:42:29;95122.66;;;39.85;23.55
20027;BME280;10174;42.688;23.344;2023-08-17T11:44:55;95106.13;;;40.78;22.35
20027;BME280;10174;42.688;23.344;2023-08-17T11:47:21;95192.09;;;40.29;23.22
20027;BME280;10174;42.688;23.344;2023-08-17T11:49:49;95173.72;;;38.02;25.12
20027;BME280;10174;42.688;23.344;2023-08-17T11:52:14;95193.63;;;37.49;26.38
20027;BME280;10174;42.688;23.344;2023-08-17T11:54:41;95118.66;;;36.32;28.18
20027;BME280;10174;42.688;23.344;2023-08-17T11:57:07;95113.88;;;35.76;28.26
20027;BME280;10174;42.688;23.344;2023-08-17T11:59:32;95177.47;;;36.25;29.04
20027;BME280;10174;42.688;23.344;2023-08-17T12:01:59;95139.69;;;35.43;29.63
20027;BME280;10174;42.688;23.344;2023-08-17T12:04:25;95166.72;;;34.83;29.93
20027;BME280;10174;42.688;23.344;2023-08-17T12:06:51;95160.03;;;34.53;30.28
20027;BME280;10174;42.688;23.344;2023-08-17T12:09:17;95106.44;;;33.60;31.59
20027;BME280;10174;42.688;23.344;2023-08-17T12:11:44;95184.16;;;33.78;31.51
20027;BME280;10174;42.688;23.344;2023-08-17T12:14:10;95171.31;;;33.87;31.94
20027;BME280;10174;42.688;23.344;2023-08-17T12:16:45;95082.84;;;33.37;31.76
20027;BME280;10174;42.688;23.344;2023-08-17T12:19:12;95161.88;;;34.36;31.33
20027;BME280;10174;42.688;23.344;2023-08-17T12:21:37;95158.78;;;34.30;31.96
20027;BME280;10174;42.688;23.344;2023-08-17T12:24:05;95144.53;;;34.24;32.62
20027;BME280;10174;42.688;23.344;2023-08-17T12:26:31;95162.84;;;34.25;32.36
20027;BME280;10174;42.688;23.344;2023-08-17T12:28:58;95160.97;;;34.42;34.06
20027;BME280;10174;42.688;23.344;2023-08-17T12:31:23;95161.03;;;34.39;34.40
20027;BME280;10174;42.688;23.344;2023-08-17T12:33:50;95165.69;;;34.18;34.88
20027;BME280;10174;42.688;23.344;2023-08-17T12:36:15;95157.91;;;33.79;33.45
20027;BME280;10174;42.688;23.344;2023-08-17T12:38:41;95066.75;;;32.87;33.52
20027;BME280;10174;42.688;23.344;2023-08-17T12:41:10;95163.16;;;33.35;34.22
20027;BME280;10174;42.688;23.344;2023-08-17T12:43:37;95169.03;;;33.06;36.47
20027;BME280;10174;42.688;23.344;2023-08-17T12:46:03;95151.25;;;32.47;37.97
20027;BME280;10174;42.688;23.344;2023-08-17T12:48:28;95177.41;;;32.57;38.09
20027;BME280;10174;42.688;23.344;2023-08-17T12:50:53;95161.25;;;32.41;38.20
20027;BME280;10174;42.688;23.344;2023-08-17T12:53:19;95116.47;;;31.65;39.17
20027;BME280;10174;42.688;23.344;2023-08-17T12:55:44;95142.25;;;31.69;39.61
20027;BME280;10174;42.688;23.344;2023-08-17T12:58:10;95152.88;;;31.82;40.12
20027;BME280;10174;42.688;23.344;2023-08-17T13:00:36;95146.97;;;31.79;39.62